Sign-in with your pilot id or email, or register

ICAO: LROP Name / Country: Henri Coand? International Airport / Romania
Latitude: 44.5722 Longitude: 26.1022
Total Arrivals:
Strict Standards: Non-static method AirportData::getarrflights() should not be called statically, assuming $this from incompatible context in /var/www/customers/vh-7192/web/home/phpvms/core/templates/airport_info.tpl on line 18
8
Total Departures:
Strict Standards: Non-static method AirportData::getdeptflights() should not be called statically, assuming $this from incompatible context in /var/www/customers/vh-7192/web/home/phpvms/core/templates/airport_info.tpl on line 21
4
Latest Arrival: MTA852 (LHBP-LROP) Tibor Berces Latest Departure: MTA853 (LROP-LHBP) Tibor Berces
Metar: LROP 270930Z 28018KT CAVOK 20/07 Q1010 NOSIG
More info

Charts for LROP


NOTAM


Warning: file_get_contents(http://api.vateud.net/notams/LROP.json): failed to open stream: Redirection limit reached, aborting in /var/www/customers/vh-7192/web/home/phpvms/core/common/NOTAMSData.class.php on line 18

Warning: Invalid argument supplied for foreach() in /var/www/customers/vh-7192/web/home/phpvms/core/common/NOTAMSData.class.php on line 22

Henri Coand? International Airport